sensor_id;sensor_type;location;lat;lon;timestamp;temperature;humidity
57108;DHT22;42987;52.916;6.542;2022-07-29T00:01:01;15.20;99.90
57108;DHT22;42987;52.916;6.542;2022-07-29T00:03:28;15.20;99.90
57108;DHT22;42987;52.916;6.542;2022-07-29T00:05:53;15.20;99.90
57108;DHT22;42987;52.916;6.542;2022-07-29T00:08:19;15.20;99.90
57108;DHT22;42987;52.916;6.542;2022-07-29T00:10:45;15.20;99.90
57108;DHT22;42987;52.916;6.542;2022-07-29T00:13:11;15.20;99.90
57108;DHT22;42987;52.916;6.542;2022-07-29T00:15:37;15.20;99.90
57108;DHT22;42987;52.916;6.542;2022-07-29T00:18:03;15.20;99.90
57108;DHT22;42987;52.916;6.542;2022-07-29T00:20:29;15.20;99.90
57108;DHT22;42987;52.916;6.542;2022-07-29T00:22:55;15.20;99.90
57108;DHT22;42987;52.916;6.542;2022-07-29T00:25:20;15.10;99.90
57108;DHT22;42987;52.916;6.542;2022-07-29T00:27:46;15.20;99.90
57108;DHT22;42987;52.916;6.542;2022-07-29T00:30:12;15.20;99.90
57108;DHT22;42987;52.916;6.542;2022-07-29T00:32:38;15.20;99.90
57108;DHT22;42987;52.916;6.542;2022-07-29T00:35:05;15.20;99.90
57108;DHT22;42987;52.916;6.542;2022-07-29T00:37:50;15.10;99.90
57108;DHT22;42987;52.916;6.542;2022-07-29T00:40:16;15.10;99.90
57108;DHT22;42987;52.916;6.542;2022-07-29T00:42:43;15.10;99.90
57108;DHT22;42987;52.916;6.542;2022-07-29T00:45:09;15.10;99.90
57108;DHT22;42987;52.916;6.542;2022-07-29T00:47:35;15.10;99.90
57108;DHT22;42987;52.916;6.542;2022-07-29T00:50:01;15.10;99.90
57108;DHT22;42987;52.916;6.542;2022-07-29T00:52:26;15.10;99.90
57108;DHT22;42987;52.916;6.542;2022-07-29T00:54:56;15.10;99.90
57108;DHT22;42987;52.916;6.542;2022-07-29T00:57:22;15.10;99.90
57108;DHT22;42987;52.916;6.542;2022-07-29T00:59:48;15.10;99.90
57108;DHT22;42987;52.916;6.542;2022-07-29T01:02:17;15.00;99.90
57108;DHT22;42987;52.916;6.542;2022-07-29T01:04:43;15.10;99.90
57108;DHT22;42987;52.916;6.542;2022-07-29T01:07:09;15.10;99.90
57108;DHT22;42987;52.916;6.542;2022-07-29T01:09:37;15.00;99.90
57108;DHT22;42987;52.916;6.542;2022-07-29T01:12:04;15.00;99.90
57108;DHT22;42987;52.916;6.542;2022-07-29T01:14:31;15.00;99.90
57108;DHT22;42987;52.916;6.542;2022-07-29T01:17:01;15.00;99.90
57108;DHT22;42987;52.916;6.542;2022-07-29T01:25:12;14.90;99.90
57108;DHT22;42987;52.916;6.542;2022-07-29T01:30:42;14.90;99.90
57108;DHT22;42987;52.916;6.542;2022-07-29T01:33:15;14.90;99.90
57108;DHT22;42987;52.916;6.542;2022-07-29T01:36:07;14.90;99.90
57108;DHT22;42987;52.916;6.542;2022-07-29T01:38:41;14.90;99.90
57108;DHT22;42987;52.916;6.542;2022-07-29T01:41:14;14.90;99.90
57108;DHT22;42987;52.916;6.542;2022-07-29T01:43:44;14.90;99.90
57108;DHT22;42987;52.916;6.542;2022-07-29T01:46:18;15.00;99.90
57108;DHT22;42987;52.916;6.542;2022-07-29T01:48:47;14.90;99.90
57108;DHT22;42987;52.916;6.542;2022-07-29T01:51:40;15.00;99.90
57108;DHT22;42987;52.916;6.542;2022-07-29T01:54:43;15.00;99.90
57108;DHT22;42987;52.916;6.542;2022-07-29T01:57:16;15.00;99.90
57108;DHT22;42987;52.916;6.542;2022-07-29T01:59:45;15.00;99.90
57108;DHT22;42987;52.916;6.542;2022-07-29T02:02:15;15.00;99.90
57108;DHT22;42987;52.916;6.542;2022-07-29T02:04:43;15.00;99.90
57108;DHT22;42987;52.916;6.542;2022-07-29T02:07:18;15.00;99.90
57108;DHT22;42987;52.916;6.542;2022-07-29T02:09:46;15.00;99.90
57108;DHT22;42987;52.916;6.542;2022-07-29T02:12:14;15.00;99.90
57108;DHT22;42987;52.916;6.542;2022-07-29T02:14:45;15.00;99.90
57108;DHT22;42987;52.916;6.542;2022-07-29T02:17:13;15.00;99.90
57108;DHT22;42987;52.916;6.542;2022-07-29T02:19:43;15.00;99.90
57108;DHT22;42987;52.916;6.542;2022-07-29T02:22:11;15.00;99.90
57108;DHT22;42987;52.916;6.542;2022-07-29T02:24:39;14.90;99.90
57108;DHT22;42987;52.916;6.542;2022-07-29T02:27:07;14.90;99.90
57108;DHT22;42987;52.916;6.542;2022-07-29T02:29:35;15.00;99.90
57108;DHT22;42987;52.916;6.542;2022-07-29T02:32:03;14.90;99.90
57108;DHT22;42987;52.916;6.542;2022-07-29T02:34:29;15.00;99.90
57108;DHT22;42987;52.916;6.542;2022-07-29T02:36:55;15.00;99.90
57108;DHT22;42987;52.916;6.542;2022-07-29T02:39:23;15.00;99.90
57108;DHT22;42987;52.916;6.542;2022-07-29T02:42:03;15.00;99.90
57108;DHT22;42987;52.916;6.542;2022-07-29T02:44:29;15.00;99.90
57108;DHT22;42987;52.916;6.542;2022-07-29T02:49:47;15.00;99.90
57108;DHT22;42987;52.916;6.542;2022-07-29T02:54:58;15.00;99.90
57108;DHT22;42987;52.916;6.542;2022-07-29T02:57:36;15.00;99.90
57108;DHT22;42987;52.916;6.542;2022-07-29T03:00:06;15.00;99.90
57108;DHT22;42987;52.916;6.542;2022-07-29T03:02:38;15.00;99.90
57108;DHT22;42987;52.916;6.542;2022-07-29T03:05:08;14.90;99.90
57108;DHT22;42987;52.916;6.542;2022-07-29T03:07:35;14.90;99.90
57108;DHT22;42987;52.916;6.542;2022-07-29T03:10:02;14.90;99.90
57108;DHT22;42987;52.916;6.542;2022-07-29T03:12:28;14.90;99.90
57108;DHT22;42987;52.916;6.542;2022-07-29T03:14:56;14.90;99.90
57108;DHT22;42987;52.916;6.542;2022-07-29T03:17:25;15.00;99.90
57108;DHT22;42987;52.916;6.542;2022-07-29T03:19:51;14.90;99.90
57108;DHT22;42987;52.916;6.542;2022-07-29T03:22:20;15.00;99.90
57108;DHT22;42987;52.916;6.542;2022-07-29T03:24:46;14.90;99.90
57108;DHT22;42987;52.916;6.542;2022-07-29T03:27:12;14.90;99.90
57108;DHT22;42987;52.916;6.542;2022-07-29T03:29:38;14.90;99.90
57108;DHT22;42987;52.916;6.542;2022-07-29T03:32:05;14.90;99.90
57108;DHT22;42987;52.916;6.542;2022-07-29T03:34:31;14.90;99.90
57108;DHT22;42987;52.916;6.542;2022-07-29T03:36:56;14.90;99.90
57108;DHT22;42987;52.916;6.542;2022-07-29T03:39:25;14.90;99.90
57108;DHT22;42987;52.916;6.542;2022-07-29T03:41:57;14.90;99.90
57108;DHT22;42987;52.916;6.542;2022-07-29T03:44:27;14.90;99.90
57108;DHT22;42987;52.916;6.542;2022-07-29T03:46:57;14.90;99.90
57108;DHT22;42987;52.916;6.542;2022-07-29T03:49:29;14.80;99.90
57108;DHT22;42987;52.916;6.542;2022-07-29T03:51:56;14.80;99.90
57108;DHT22;42987;52.916;6.542;2022-07-29T03:54:25;14.80;99.90
57108;DHT22;42987;52.916;6.542;2022-07-29T03:56:53;14.80;99.90
57108;DHT22;42987;52.916;6.542;2022-07-29T03:59:20;14.80;99.90
57108;DHT22;42987;52.916;6.542;2022-07-29T04:01:48;14.80;99.90
57108;DHT22;42987;52.916;6.542;2022-07-29T04:04:14;14.70;99.90
57108;DHT22;42987;52.916;6.542;2022-07-29T04:06:45;14.70;99.90
57108;DHT22;42987;52.916;6.542;2022-07-29T04:09:11;14.70;99.90
57108;DHT22;42987;52.916;6.542;2022-07-29T04:11:41;14.70;99.90
57108;DHT22;42987;52.916;6.542;2022-07-29T04:14:10;14.80;99.90
57108;DHT22;42987;52.916;6.542;2022-07-29T04:16:36;14.70;99.90
57108;DHT22;42987;52.916;6.542;2022-07-29T04:19:02;14.70;99.90
57108;DHT22;42987;52.916;6.542;2022-07-29T04:21:28;14.70;99.90
57108;DHT22;42987;52.916;6.542;2022-07-29T04:23:53;14.70;99.90
57108;DHT22;42987;52.916;6.542;2022-07-29T04:26:20;14.70;99.90
57108;DHT22;42987;52.916;6.542;2022-07-29T04:28:46;14.70;99.90
57108;DHT22;42987;52.916;6.542;2022-07-29T04:31:12;14.70;99.90
57108;DHT22;42987;52.916;6.542;2022-07-29T04:33:39;14.70;99.90
57108;DHT22;42987;52.916;6.542;2022-07-29T04:36:05;14.70;99.90
57108;DHT22;42987;52.916;6.542;2022-07-29T04:38:31;14.60;99.90
57108;DHT22;42987;52.916;6.542;2022-07-29T04:40:57;14.60;99.90
57108;DHT22;42987;52.916;6.542;2022-07-29T04:43:25;14.70;99.90
57108;DHT22;42987;52.916;6.542;2022-07-29T04:45:51;14.70;99.90
57108;DHT22;42987;52.916;6.542;2022-07-29T04:48:17;14.60;99.90
57108;DHT22;42987;52.916;6.542;2022-07-29T04:50:43;14.60;99.90
57108;DHT22;42987;52.916;6.542;2022-07-29T04:53:09;14.60;99.90
57108;DHT22;42987;52.916;6.542;2022-07-29T04:55:35;14.60;99.90
57108;DHT22;42987;52.916;6.542;2022-07-29T04:58:02;14.60;99.90
57108;DHT22;42987;52.916;6.542;2022-07-29T05:00:27;14.60;99.90
57108;DHT22;42987;52.916;6.542;2022-07-29T05:02:53;14.60;99.90
57108;DHT22;42987;52.916;6.542;2022-07-29T05:05:23;14.60;99.90
57108;DHT22;42987;52.916;6.542;2022-07-29T05:07:48;14.60;99.90
57108;DHT22;42987;52.916;6.542;2022-07-29T05:10:14;14.60;99.90
57108;DHT22;42987;52.916;6.542;2022-07-29T05:12:40;14.60;99.90
57108;DHT22;42987;52.916;6.542;2022-07-29T05:15:06;14.60;99.90
57108;DHT22;42987;52.916;6.542;2022-07-29T05:17:32;14.60;99.90
57108;DHT22;42987;52.916;6.542;2022-07-29T05:19:58;14.60;99.90
57108;DHT22;42987;52.916;6.542;2022-07-29T05:22:23;14.60;99.90
57108;DHT22;42987;52.916;6.542;2022-07-29T05:24:49;14.60;99.90
57108;DHT22;42987;52.916;6.542;2022-07-29T05:27:15;14.60;99.90
57108;DHT22;42987;52.916;6.542;2022-07-29T05:29:41;14.60;99.90
57108;DHT22;42987;52.916;6.542;2022-07-29T05:32:07;14.70;99.90
57108;DHT22;42987;52.916;6.542;2022-07-29T05:34:33;14.60;99.90
57108;DHT22;42987;52.916;6.542;2022-07-29T05:36:59;14.60;99.90
57108;DHT22;42987;52.916;6.542;2022-07-29T05:39:25;14.60;99.90
57108;DHT22;42987;52.916;6.542;2022-07-29T05:41:51;14.70;99.90
57108;DHT22;42987;52.916;6.542;2022-07-29T05:44:16;14.70;99.90
57108;DHT22;42987;52.916;6.542;2022-07-29T05:46:42;14.70;99.90
57108;DHT22;42987;52.916;6.542;2022-07-29T05:49:08;14.70;99.90
57108;DHT22;42987;52.916;6.542;2022-07-29T05:51:34;14.70;99.90
57108;DHT22;42987;52.916;6.542;2022-07-29T05:54:00;14.70;99.90
57108;DHT22;42987;52.916;6.542;2022-07-29T05:56:27;14.80;99.90
57108;DHT22;42987;52.916;6.542;2022-07-29T05:58:53;14.80;99.90
57108;DHT22;42987;52.916;6.542;2022-07-29T06:01:19;14.80;99.90
57108;DHT22;42987;52.916;6.542;2022-07-29T06:03:45;14.80;99.90
57108;DHT22;42987;52.916;6.542;2022-07-29T06:06:11;14.80;99.90
57108;DHT22;42987;52.916;6.542;2022-07-29T06:08:37;14.80;99.90
57108;DHT22;42987;52.916;6.542;2022-07-29T06:11:04;14.80;99.90
57108;DHT22;42987;52.916;6.542;2022-07-29T06:13:30;14.90;99.90
57108;DHT22;42987;52.916;6.542;2022-07-29T06:15:56;14.90;99.90
57108;DHT22;42987;52.916;6.542;2022-07-29T06:18:28;14.90;99.90
57108;DHT22;42987;52.916;6.542;2022-07-29T06:20:54;15.00;99.90
57108;DHT22;42987;52.916;6.542;2022-07-29T06:23:20;15.00;99.90
57108;DHT22;42987;52.916;6.542;2022-07-29T06:25:46;15.00;99.90
57108;DHT22;42987;52.916;6.542;2022-07-29T06:28:12;15.10;99.90
57108;DHT22;42987;52.916;6.542;2022-07-29T06:30:39;15.20;99.90
57108;DHT22;42987;52.916;6.542;2022-07-29T06:33:05;15.20;99.90
57108;DHT22;42987;52.916;6.542;2022-07-29T06:35:33;15.30;99.90
57108;DHT22;42987;52.916;6.542;2022-07-29T06:38:01;15.30;99.90
57108;DHT22;42987;52.916;6.542;2022-07-29T06:40:27;15.30;99.90
57108;DHT22;42987;52.916;6.542;2022-07-29T06:43:11;15.40;99.90
57108;DHT22;42987;52.916;6.542;2022-07-29T06:45:37;15.50;99.90
57108;DHT22;42987;52.916;6.542;2022-07-29T06:48:06;15.60;99.90
57108;DHT22;42987;52.916;6.542;2022-07-29T06:50:32;15.70;99.90
57108;DHT22;42987;52.916;6.542;2022-07-29T06:52:58;15.70;99.90
57108;DHT22;42987;52.916;6.542;2022-07-29T06:55:23;15.70;99.90
57108;DHT22;42987;52.916;6.542;2022-07-29T06:57:50;15.70;99.90
57108;DHT22;42987;52.916;6.542;2022-07-29T07:00:19;15.70;99.90
57108;DHT22;42987;52.916;6.542;2022-07-29T07:02:45;15.70;99.90
57108;DHT22;42987;52.916;6.542;2022-07-29T07:05:11;15.70;99.90
57108;DHT22;42987;52.916;6.542;2022-07-29T07:07:40;15.70;99.90
57108;DHT22;42987;52.916;6.542;2022-07-29T07:10:09;15.70;99.90
57108;DHT22;42987;52.916;6.542;2022-07-29T07:12:34;15.80;99.90
57108;DHT22;42987;52.916;6.542;2022-07-29T07:15:00;15.80;99.90
57108;DHT22;42987;52.916;6.542;2022-07-29T07:17:26;15.80;99.90
57108;DHT22;42987;52.916;6.542;2022-07-29T07:19:51;15.80;99.90
57108;DHT22;42987;52.916;6.542;2022-07-29T07:22:18;15.80;99.90
57108;DHT22;42987;52.916;6.542;2022-07-29T07:24:43;15.80;99.90
57108;DHT22;42987;52.916;6.542;2022-07-29T07:27:09;15.90;99.90
57108;DHT22;42987;52.916;6.542;2022-07-29T07:29:35;15.90;99.90
57108;DHT22;42987;52.916;6.542;2022-07-29T07:32:04;15.90;99.90
57108;DHT22;42987;52.916;6.542;2022-07-29T07:34:30;15.90;99.90
57108;DHT22;42987;52.916;6.542;2022-07-29T07:36:56;15.90;99.90
57108;DHT22;42987;52.916;6.542;2022-07-29T07:39:22;16.00;99.90
57108;DHT22;42987;52.916;6.542;2022-07-29T07:41:52;16.00;99.90
57108;DHT22;42987;52.916;6.542;2022-07-29T07:44:18;16.00;99.90
57108;DHT22;42987;52.916;6.542;2022-07-29T07:46:44;16.00;99.90
57108;DHT22;42987;52.916;6.542;2022-07-29T07:49:10;16.10;99.90
57108;DHT22;42987;52.916;6.542;2022-07-29T07:51:36;16.20;99.90
57108;DHT22;42987;52.916;6.542;2022-07-29T07:54:02;16.20;99.90
57108;DHT22;42987;52.916;6.542;2022-07-29T07:56:28;16.20;99.90
57108;DHT22;42987;52.916;6.542;2022-07-29T07:58:54;16.30;99.90
57108;DHT22;42987;52.916;6.542;2022-07-29T08:01:19;16.20;99.90
57108;DHT22;42987;52.916;6.542;2022-07-29T08:03:49;16.30;99.90
57108;DHT22;42987;52.916;6.542;2022-07-29T08:06:15;16.40;99.90
57108;DHT22;42987;52.916;6.542;2022-07-29T08:08:41;16.40;99.90
57108;DHT22;42987;52.916;6.542;2022-07-29T08:11:06;16.40;99.90
57108;DHT22;42987;52.916;6.542;2022-07-29T08:13:32;16.40;99.90
57108;DHT22;42987;52.916;6.542;2022-07-29T08:15:59;16.40;99.90
57108;DHT22;42987;52.916;6.542;2022-07-29T08:18:37;16.50;99.90
57108;DHT22;42987;52.916;6.542;2022-07-29T08:21:04;16.50;99.90
57108;DHT22;42987;52.916;6.542;2022-07-29T08:23:30;16.60;99.90
57108;DHT22;42987;52.916;6.542;2022-07-29T08:26:06;16.60;99.90
57108;DHT22;42987;52.916;6.542;2022-07-29T08:28:39;16.70;99.90
57108;DHT22;42987;52.916;6.542;2022-07-29T08:31:05;16.80;99.90
57108;DHT22;42987;52.916;6.542;2022-07-29T08:33:32;16.90;99.90
57108;DHT22;42987;52.916;6.542;2022-07-29T08:35:59;17.00;99.90
57108;DHT22;42987;52.916;6.542;2022-07-29T08:38:25;17.10;99.90
57108;DHT22;42987;52.916;6.542;2022-07-29T08:40:54;17.20;99.90
57108;DHT22;42987;52.916;6.542;2022-07-29T08:43:20;17.30;99.90
57108;DHT22;42987;52.916;6.542;2022-07-29T08:45:48;17.30;99.90
57108;DHT22;42987;52.916;6.542;2022-07-29T08:48:17;17.40;99.90
57108;DHT22;42987;52.916;6.542;2022-07-29T08:50:45;17.30;99.90
57108;DHT22;42987;52.916;6.542;2022-07-29T08:53:13;17.30;99.90
57108;DHT22;42987;52.916;6.542;2022-07-29T08:55:47;17.30;99.90
57108;DHT22;42987;52.916;6.542;2022-07-29T08:58:14;17.30;99.90
57108;DHT22;42987;52.916;6.542;2022-07-29T09:00:43;17.40;99.90
57108;DHT22;42987;52.916;6.542;2022-07-29T09:03:15;17.40;99.90
57108;DHT22;42987;52.916;6.542;2022-07-29T09:05:42;17.40;99.90
57108;DHT22;42987;52.916;6.542;2022-07-29T09:08:08;17.50;99.90
57108;DHT22;42987;52.916;6.542;2022-07-29T09:10:35;17.50;99.90
57108;DHT22;42987;52.916;6.542;2022-07-29T09:13:04;17.50;99.90
57108;DHT22;42987;52.916;6.542;2022-07-29T09:15:30;17.50;99.90
57108;DHT22;42987;52.916;6.542;2022-07-29T09:17:56;17.40;99.90
57108;DHT22;42987;52.916;6.542;2022-07-29T09:20:24;17.40;99.90
57108;DHT22;42987;52.916;6.542;2022-07-29T09:22:51;17.40;99.90
57108;DHT22;42987;52.916;6.542;2022-07-29T09:25:34;17.40;99.90
57108;DHT22;42987;52.916;6.542;2022-07-29T09:28:15;17.40;99.90
57108;DHT22;42987;52.916;6.542;2022-07-29T09:30:52;17.40;99.90
57108;DHT22;42987;52.916;6.542;2022-07-29T09:33:19;17.30;99.90
57108;DHT22;42987;52.916;6.542;2022-07-29T09:35:45;17.30;99.90
57108;DHT22;42987;52.916;6.542;2022-07-29T09:38:12;17.30;99.90
57108;DHT22;42987;52.916;6.542;2022-07-29T09:40:38;17.30;99.90
57108;DHT22;42987;52.916;6.542;2022-07-29T09:43:12;17.30;99.90
57108;DHT22;42987;52.916;6.542;2022-07-29T09:45:39;17.30;99.90
57108;DHT22;42987;52.916;6.542;2022-07-29T09:48:16;17.40;99.90
57108;DHT22;42987;52.916;6.542;2022-07-29T09:50:46;17.40;99.90
57108;DHT22;42987;52.916;6.542;2022-07-29T09:53:37;17.40;99.90
57108;DHT22;42987;52.916;6.542;2022-07-29T09:56:04;17.40;99.90
57108;DHT22;42987;52.916;6.542;2022-07-29T09:58:30;17.40;99.90
57108;DHT22;42987;52.916;6.542;2022-07-29T10:00:58;17.40;99.90
57108;DHT22;42987;52.916;6.542;2022-07-29T10:03:24;17.40;99.90
57108;DHT22;42987;52.916;6.542;2022-07-29T10:06:10;17.50;99.90
57108;DHT22;42987;52.916;6.542;2022-07-29T10:08:37;17.60;99.90
57108;DHT22;42987;52.916;6.542;2022-07-29T10:11:17;17.60;99.90
57108;DHT22;42987;52.916;6.542;2022-07-29T10:13:45;17.60;99.90
57108;DHT22;42987;52.916;6.542;2022-07-29T10:16:13;17.70;99.90
57108;DHT22;42987;52.916;6.542;2022-07-29T10:18:42;17.70;99.90
57108;DHT22;42987;52.916;6.542;2022-07-29T10:21:15;17.70;99.90
57108;DHT22;42987;52.916;6.542;2022-07-29T10:23:42;17.70;99.90
57108;DHT22;42987;52.916;6.542;2022-07-29T10:26:12;17.70;99.90
57108;DHT22;42987;52.916;6.542;2022-07-29T10:28:39;17.80;99.90
57108;DHT22;42987;52.916;6.542;2022-07-29T10:31:08;17.80;99.90
57108;DHT22;42987;52.916;6.542;2022-07-29T10:36:56;17.90;99.90
57108;DHT22;42987;52.916;6.542;2022-07-29T10:42:14;18.20;99.90
57108;DHT22;42987;52.916;6.542;2022-07-29T10:44:43;18.30;99.90
57108;DHT22;42987;52.916;6.542;2022-07-29T10:47:26;18.50;99.90
57108;DHT22;42987;52.916;6.542;2022-07-29T10:50:00;18.70;99.90
57108;DHT22;42987;52.916;6.542;2022-07-29T10:55:37;19.00;99.90
57108;DHT22;42987;52.916;6.542;2022-07-29T10:58:23;19.20;99.90
57108;DHT22;42987;52.916;6.542;2022-07-29T11:00:54;19.40;99.90
57108;DHT22;42987;52.916;6.542;2022-07-29T11:03:48;19.60;99.90
57108;DHT22;42987;52.916;6.542;2022-07-29T11:06:18;19.80;99.90
57108;DHT22;42987;52.916;6.542;2022-07-29T11:08:44;20.00;99.90
57108;DHT22;42987;52.916;6.542;2022-07-29T11:16:16;20.50;99.90
57108;DHT22;42987;52.916;6.542;2022-07-29T11:21:37;20.90;99.90
57108;DHT22;42987;52.916;6.542;2022-07-29T11:24:27;21.20;99.90
57108;DHT22;42987;52.916;6.542;2022-07-29T11:29:40;21.60;99.90
57108;DHT22;42987;52.916;6.542;2022-07-29T11:32:14;21.70;99.90
57108;DHT22;42987;52.916;6.542;2022-07-29T11:34:41;21.60;99.70
57108;DHT22;42987;52.916;6.542;2022-07-29T11:39:39;21.60;99.90
57108;DHT22;42987;52.916;6.542;2022-07-29T11:47:25;21.70;99.90
57108;DHT22;42987;52.916;6.542;2022-07-29T11:49:54;21.70;99.90
57108;DHT22;42987;52.916;6.542;2022-07-29T11:52:24;21.80;99.90
57108;DHT22;42987;52.916;6.542;2022-07-29T11:54:57;21.90;99.90
57108;DHT22;42987;52.916;6.542;2022-07-29T11:57:26;22.20;99.90
57108;DHT22;42987;52.916;6.542;2022-07-29T11:59:53;22.30;99.50
57108;DHT22;42987;52.916;6.542;2022-07-29T12:02:20;22.20;99.50
57108;DHT22;42987;52.916;6.542;2022-07-29T12:04:50;22.10;99.40
57108;DHT22;42987;52.916;6.542;2022-07-29T12:07:16;22.00;99.90
57108;DHT22;42987;52.916;6.542;2022-07-29T12:09:52;22.10;99.90
57108;DHT22;42987;52.916;6.542;2022-07-29T12:12:18;22.30;99.90
57108;DHT22;42987;52.916;6.542;2022-07-29T12:14:50;22.30;99.90
57108;DHT22;42987;52.916;6.542;2022-07-29T12:17:30;22.30;98.70
57108;DHT22;42987;52.916;6.542;2022-07-29T12:19:57;22.30;99.60
57108;DHT22;42987;52.916;6.542;2022-07-29T12:22:35;22.10;99.70
57108;DHT22;42987;52.916;6.542;2022-07-29T12:25:13;22.10;99.90
57108;DHT22;42987;52.916;6.542;2022-07-29T12:27:41;22.10;99.90
57108;DHT22;42987;52.916;6.542;2022-07-29T12:30:14;22.20;99.30
57108;DHT22;42987;52.916;6.542;2022-07-29T12:32:48;22.30;98.70
57108;DHT22;42987;52.916;6.542;2022-07-29T12:35:18;22.40;98.10
57108;DHT22;42987;52.916;6.542;2022-07-29T12:37:48;22.50;98.40
57108;DHT22;42987;52.916;6.542;2022-07-29T12:40:17;22.70;96.90
57108;DHT22;42987;52.916;6.542;2022-07-29T12:43:09;22.80;97.00
57108;DHT22;42987;52.916;6.542;2022-07-29T12:45:36;22.80;95.50
57108;DHT22;42987;52.916;6.542;2022-07-29T12:48:02;22.70;95.60
57108;DHT22;42987;52.916;6.542;2022-07-29T12:50:28;22.60;95.70
57108;DHT22;42987;52.916;6.542;2022-07-29T12:52:54;22.50;95.60
57108;DHT22;42987;52.916;6.542;2022-07-29T12:55:59;22.40;96.00
57108;DHT22;42987;52.916;6.542;2022-07-29T12:58:31;22.30;98.80
57108;DHT22;42987;52.916;6.542;2022-07-29T13:01:12;22.40;97.70
57108;DHT22;42987;52.916;6.542;2022-07-29T13:06:40;22.60;95.90
57108;DHT22;42987;52.916;6.542;2022-07-29T13:09:17;22.50;96.50
57108;DHT22;42987;52.916;6.542;2022-07-29T13:11:45;22.60;96.20
57108;DHT22;42987;52.916;6.542;2022-07-29T13:14:14;22.70;95.50
57108;DHT22;42987;52.916;6.542;2022-07-29T13:17:06;22.80;94.60
57108;DHT22;42987;52.916;6.542;2022-07-29T13:19:46;22.90;94.70
57108;DHT22;42987;52.916;6.542;2022-07-29T13:22:16;23.00;95.20
57108;DHT22;42987;52.916;6.542;2022-07-29T13:25:01;23.20;92.30
57108;DHT22;42987;52.916;6.542;2022-07-29T13:27:29;23.50;93.10
57108;DHT22;42987;52.916;6.542;2022-07-29T13:29:59;23.80;92.10
57108;DHT22;42987;52.916;6.542;2022-07-29T13:32:29;24.00;91.80
57108;DHT22;42987;52.916;6.542;2022-07-29T13:34:56;24.20;90.90
57108;DHT22;42987;52.916;6.542;2022-07-29T13:37:26;24.30;90.70
57108;DHT22;42987;52.916;6.542;2022-07-29T13:39:55;24.40;90.40
57108;DHT22;42987;52.916;6.542;2022-07-29T13:42:22;24.60;89.20
57108;DHT22;42987;52.916;6.542;2022-07-29T13:44:48;24.70;87.30
57108;DHT22;42987;52.916;6.542;2022-07-29T13:47:21;24.80;88.10
57108;DHT22;42987;52.916;6.542;2022-07-29T13:49:50;24.90;86.90
57108;DHT22;42987;52.916;6.542;2022-07-29T13:52:16;25.20;88.70
57108;DHT22;42987;52.916;6.542;2022-07-29T13:54:45;25.40;86.30
57108;DHT22;42987;52.916;6.542;2022-07-29T13:57:15;25.60;81.40
57108;DHT22;42987;52.916;6.542;2022-07-29T13:59:40;25.70;78.20
57108;DHT22;42987;52.916;6.542;2022-07-29T14:02:08;25.70;79.40
57108;DHT22;42987;52.916;6.542;2022-07-29T14:04:37;25.80;77.10
57108;DHT22;42987;52.916;6.542;2022-07-29T14:07:03;25.80;76.00
57108;DHT22;42987;52.916;6.542;2022-07-29T14:09:29;25.80;74.90
57108;DHT22;42987;52.916;6.542;2022-07-29T14:11:55;25.90;75.10
57108;DHT22;42987;52.916;6.542;2022-07-29T14:14:21;26.00;73.40
57108;DHT22;42987;52.916;6.542;2022-07-29T14:16:47;26.20;73.40
57108;DHT22;42987;52.916;6.542;2022-07-29T14:19:13;26.30;73.50
57108;DHT22;42987;52.916;6.542;2022-07-29T14:21:42;26.50;74.50
57108;DHT22;42987;52.916;6.542;2022-07-29T14:24:08;26.60;72.90
57108;DHT22;42987;52.916;6.542;2022-07-29T14:26:37;26.70;70.30
57108;DHT22;42987;52.916;6.542;2022-07-29T14:29:06;26.70;69.90
57108;DHT22;42987;52.916;6.542;2022-07-29T14:31:32;26.70;69.00
57108;DHT22;42987;52.916;6.542;2022-07-29T14:33:58;26.60;69.40
57108;DHT22;42987;52.916;6.542;2022-07-29T14:36:24;26.60;69.20
57108;DHT22;42987;52.916;6.542;2022-07-29T14:38:50;26.60;69.90
57108;DHT22;42987;52.916;6.542;2022-07-29T14:41:15;26.70;69.50
57108;DHT22;42987;52.916;6.542;2022-07-29T14:43:41;26.70;67.50
57108;DHT22;42987;52.916;6.542;2022-07-29T14:46:07;26.60;68.20
57108;DHT22;42987;52.916;6.542;2022-07-29T14:48:33;26.70;68.00
57108;DHT22;42987;52.916;6.542;2022-07-29T14:50:59;26.70;66.70
57108;DHT22;42987;52.916;6.542;2022-07-29T14:53:24;26.70;65.50
57108;DHT22;42987;52.916;6.542;2022-07-29T14:55:51;26.70;64.60
57108;DHT22;42987;52.916;6.542;2022-07-29T14:58:16;26.60;64.70
57108;DHT22;42987;52.916;6.542;2022-07-29T15:00:42;26.30;64.90
57108;DHT22;42987;52.916;6.542;2022-07-29T15:03:11;26.00;66.00
57108;DHT22;42987;52.916;6.542;2022-07-29T15:05:41;25.90;67.40
57108;DHT22;42987;52.916;6.542;2022-07-29T15:08:06;25.70;67.60
57108;DHT22;42987;52.916;6.542;2022-07-29T15:10:33;25.60;67.60
57108;DHT22;42987;52.916;6.542;2022-07-29T15:13:02;25.50;68.50
57108;DHT22;42987;52.916;6.542;2022-07-29T15:15:28;25.60;68.20
57108;DHT22;42987;52.916;6.542;2022-07-29T15:17:54;25.50;67.80
57108;DHT22;42987;52.916;6.542;2022-07-29T15:20:23;25.60;68.90
57108;DHT22;42987;52.916;6.542;2022-07-29T15:22:51;25.70;67.80
57108;DHT22;42987;52.916;6.542;2022-07-29T15:25:17;25.60;67.00
57108;DHT22;42987;52.916;6.542;2022-07-29T15:27:42;25.60;66.60
57108;DHT22;42987;52.916;6.542;2022-07-29T15:30:09;25.60;67.20
57108;DHT22;42987;52.916;6.542;2022-07-29T15:32:35;25.60;67.70
57108;DHT22;42987;52.916;6.542;2022-07-29T15:35:01;25.60;66.90
57108;DHT22;42987;52.916;6.542;2022-07-29T15:37:26;25.60;66.70
57108;DHT22;42987;52.916;6.542;2022-07-29T15:39:54;25.60;67.70
57108;DHT22;42987;52.916;6.542;2022-07-29T15:42:19;25.60;68.50
57108;DHT22;42987;52.916;6.542;2022-07-29T15:44:45;25.60;69.80
57108;DHT22;42987;52.916;6.542;2022-07-29T15:47:11;25.60;68.80
57108;DHT22;42987;52.916;6.542;2022-07-29T15:49:38;25.60;67.30
57108;DHT22;42987;52.916;6.542;2022-07-29T15:52:06;25.50;66.90
57108;DHT22;42987;52.916;6.542;2022-07-29T15:54:42;25.40;67.60
57108;DHT22;42987;52.916;6.542;2022-07-29T15:57:08;25.40;68.60
57108;DHT22;42987;52.916;6.542;2022-07-29T15:59:34;25.40;67.40
57108;DHT22;42987;52.916;6.542;2022-07-29T16:02:00;25.30;66.00
57108;DHT22;42987;52.916;6.542;2022-07-29T16:04:26;25.10;66.90
57108;DHT22;42987;52.916;6.542;2022-07-29T16:06:52;25.10;67.30
57108;DHT22;42987;52.916;6.542;2022-07-29T16:09:19;25.10;67.10
57108;DHT22;42987;52.916;6.542;2022-07-29T16:11:45;24.90;66.80
57108;DHT22;42987;52.916;6.542;2022-07-29T16:14:12;24.70;66.40
57108;DHT22;42987;52.916;6.542;2022-07-29T16:16:38;24.70;68.20
57108;DHT22;42987;52.916;6.542;2022-07-29T16:19:05;24.60;69.70
57108;DHT22;42987;52.916;6.542;2022-07-29T16:21:32;24.60;70.30
57108;DHT22;42987;52.916;6.542;2022-07-29T16:24:00;24.60;70.50